Hume, New York
Current Conditions -  °F | °C
As of 2:15 PM on Saturday 25 Oct 2014 (Local Time) from KOLE Reporting Station
Overcast Overcast  
Wind Chill: 61°   Ceiling: 5000
Heat Index: 61°   Visibility: 10mi
Dew Point: 46°   Wind: 7mph
Humidity: 59%   Direction: 240°WSW
Pressure: 29.68"   Gusts: NA
Location:  42.47°N, 78.14°W
Report Text: KOLE 251815Z AUTO 24006KT 10SM OVC050 16/08 A2968 RMK AO2
Loading
Personal Weather Stations






























Interactive Weather Map
Tropical Storm Tracking
New forecast layout! Learn more

10-Day Weather Forecast

Advertisements
Track Severe Weather on mobile